createdAt,value
2023-05-12T00:01:59.208Z,10.82
2023-05-12T00:07:02.034Z,10.54
2023-05-12T00:12:15.059Z,10.31
2023-05-12T00:17:17.984Z,10.35
2023-05-12T00:22:20.872Z,10.19
2023-05-12T00:27:23.663Z,10.87
2023-05-12T00:32:27.418Z,10.25
2023-05-12T00:37:30.281Z,10.84
2023-05-12T00:42:35.662Z,10.67
2023-05-12T00:47:38.549Z,10.15
2023-05-12T00:52:41.943Z,9.94
2023-05-12T00:57:45.089Z,9.73
2023-05-12T01:02:48.405Z,10.25
2023-05-12T01:07:51.650Z,10.31
2023-05-12T01:12:54.399Z,9.90
2023-05-12T01:18:02.387Z,10.77
2023-05-12T01:23:06.976Z,10.75
2023-05-12T01:28:12.024Z,10.49
2023-05-12T01:33:15.145Z,10.31
2023-05-12T01:38:17.977Z,10.17
2023-05-12T01:43:22.142Z,9.95
2023-05-12T01:48:24.999Z,10.63
2023-05-12T01:53:27.790Z,10.57
2023-05-12T01:58:30.581Z,10.00
2023-05-12T02:03:33.634Z,9.90
2023-05-12T02:08:37.079Z,10.54
2023-05-12T02:13:39.978Z,10.81
2023-05-12T02:18:42.816Z,10.29
2023-05-12T02:23:45.702Z,10.51
2023-05-12T02:28:48.689Z,10.30
2023-05-12T02:33:52.473Z,9.90
2023-05-12T02:38:55.316Z,9.89
2023-05-12T02:43:57.961Z,9.90
2023-05-12T02:49:02.405Z,10.19
2023-05-12T02:54:05.346Z,10.01
2023-05-12T02:59:08.127Z,10.27
2023-05-12T03:04:11.201Z,10.42
2023-05-12T03:09:23.787Z,10.23
2023-05-12T03:14:27.722Z,10.51
2023-05-12T03:19:30.365Z,9.77
2023-05-12T03:24:41.583Z,9.85
2023-05-12T03:29:44.156Z,10.46
2023-05-12T03:34:46.833Z,10.85
2023-05-12T03:39:49.732Z,10.35
2023-05-12T03:44:52.916Z,10.68
2023-05-12T03:50:05.744Z,10.47
2023-05-12T03:55:08.952Z,10.71
2023-05-12T04:00:12.468Z,10.23
2023-05-12T04:05:15.605Z,9.73
2023-05-12T04:10:28.193Z,10.03
2023-05-12T04:15:31.222Z,10.65
2023-05-12T04:20:34.436Z,10.69
2023-05-12T04:25:47.546Z,10.36
2023-05-12T04:31:05.638Z,10.62
2023-05-12T04:36:08.744Z,9.93
2023-05-12T04:41:11.686Z,10.55
2023-05-12T04:46:14.293Z,9.70
2023-05-12T04:51:16.905Z,9.66
2023-05-12T04:56:19.429Z,9.67
2023-05-12T05:01:42.307Z,9.62
2023-05-12T05:06:45.061Z,10.48
2023-05-12T05:11:48.088Z,10.63
2023-05-12T05:16:50.673Z,10.17
2023-05-12T05:21:54.506Z,10.57
2023-05-12T05:26:58.475Z,10.37
2023-05-12T05:32:01.627Z,10.51
2023-05-12T05:37:14.507Z,10.38
2023-05-12T05:42:17.149Z,10.11
2023-05-12T05:47:19.877Z,10.46
2023-05-12T05:52:23.523Z,9.90
2023-05-12T05:57:28.882Z,10.20
2023-05-12T06:02:43.553Z,10.68
2023-05-12T06:07:46.291Z,10.70
2023-05-12T06:12:51.754Z,10.91
2023-05-12T06:17:54.599Z,11.05
2023-05-12T06:22:58.752Z,10.56
2023-05-12T06:28:01.424Z,10.53
2023-05-12T06:33:05.351Z,10.34
2023-05-12T06:38:08.153Z,10.96
2023-05-12T06:43:10.868Z,10.92
2023-05-12T06:48:14.747Z,11.08
2023-05-12T06:53:17.485Z,11.05
2023-05-12T06:58:22.873Z,10.75
2023-05-12T07:03:25.576Z,11.18
2023-05-12T07:08:28.123Z,10.42
2023-05-12T07:13:30.799Z,10.64
2023-05-12T07:18:33.653Z,10.67
2023-05-12T07:23:37.193Z,11.15
2023-05-12T07:28:40.275Z,11.29
2023-05-12T07:33:43.678Z,11.52
2023-05-12T07:38:47.643Z,11.48
2023-05-12T07:43:50.247Z,11.33
2023-05-12T07:48:54.926Z,11.41
2023-05-12T07:53:58.830Z,11.53
2023-05-12T07:59:01.906Z,11.93
2023-05-12T08:04:04.858Z,11.71
2023-05-12T08:09:07.878Z,11.74
2023-05-12T08:14:10.423Z,11.27
2023-05-12T08:19:14.375Z,12.25
2023-05-12T08:24:18.414Z,12.30
2023-05-12T08:29:21.001Z,12.02
2023-05-12T08:34:23.736Z,12.29
2023-05-12T08:39:26.862Z,12.41
2023-05-12T08:44:29.594Z,12.87
2023-05-12T08:49:44.706Z,13.02
2023-05-12T08:54:55.420Z,13.31
2023-05-12T09:00:00.845Z,12.31
2023-05-12T09:05:03.674Z,12.58
2023-05-12T09:10:32.706Z,13.86
2023-05-12T09:15:42.958Z,13.18
2023-05-12T09:20:47.697Z,13.68
2023-05-12T09:26:02.586Z,13.56
2023-05-12T09:31:24.335Z,13.61
2023-05-12T09:36:27.004Z,13.25
2023-05-12T09:41:29.865Z,13.80
2023-05-12T09:46:42.515Z,13.90
2023-05-12T09:51:45.445Z,13.84
2023-05-12T09:57:03.492Z,13.95
2023-05-12T10:02:09.770Z,14.14
2023-05-12T10:07:14.243Z,13.81
2023-05-12T10:12:26.850Z,13.65
2023-05-12T10:17:41.700Z,13.87
2023-05-12T10:22:45.874Z,13.41
2023-05-12T10:27:49.784Z,13.39
2023-05-12T10:32:53.935Z,12.78
2023-05-12T10:37:56.785Z,13.30
2023-05-12T10:43:12.268Z,13.29
2023-05-12T10:48:16.889Z,12.77
2023-05-12T10:53:41.305Z,12.78
2023-05-12T10:59:19.608Z,13.20
2023-05-12T11:04:23.779Z,13.18
2023-05-12T11:09:27.233Z,13.81
2023-05-12T11:14:30.956Z,13.44
2023-05-12T11:19:34.844Z,14.70
2023-05-12T11:24:38.664Z,15.07
2023-05-12T11:30:03.614Z,15.41
2023-05-12T11:35:13.420Z,15.37
2023-05-12T11:40:17.809Z,15.44
2023-05-12T11:45:29.297Z,15.81
2023-05-12T11:50:31.869Z,16.20
2023-05-12T11:55:35.008Z,16.15
2023-05-12T12:00:45.993Z,16.42
2023-05-12T12:06:01.442Z,16.03
2023-05-12T12:11:05.007Z,16.44
2023-05-12T12:16:07.677Z,16.61
2023-05-12T12:21:10.496Z,16.43
2023-05-12T12:26:13.143Z,16.46
2023-05-12T12:31:16.338Z,15.98
2023-05-12T12:36:36.529Z,15.81
2023-05-12T12:41:39.173Z,15.32
2023-05-12T12:46:59.565Z,16.53
2023-05-12T12:52:03.579Z,17.07
2023-05-12T12:57:06.975Z,16.27
2023-05-12T13:02:10.308Z,15.95
2023-05-12T13:07:13.287Z,15.73
2023-05-12T13:12:15.831Z,15.83
2023-05-12T13:17:29.301Z,15.95
2023-05-12T13:22:32.122Z,16.64
2023-05-12T13:27:39.266Z,15.67
2023-05-12T13:32:42.300Z,15.94
2023-05-12T13:37:45.096Z,15.51
2023-05-12T13:42:47.666Z,15.42
2023-05-12T13:47:50.550Z,14.88
2023-05-12T13:52:53.710Z,15.33
2023-05-12T13:57:56.388Z,16.04
2023-05-12T14:03:01.521Z,16.00
2023-05-12T14:08:04.712Z,15.73
2023-05-12T14:13:08.588Z,15.39
2023-05-12T14:18:11.266Z,16.46
2023-05-12T14:23:15.746Z,16.06
2023-05-12T14:28:18.582Z,15.58
2023-05-12T14:33:21.559Z,15.55
2023-05-12T14:38:24.352Z,15.24
2023-05-12T14:43:27.998Z,14.62
2023-05-12T14:48:31.842Z,15.64
2023-05-12T14:53:34.664Z,15.58
2023-05-12T14:58:37.674Z,15.58
2023-05-12T15:03:40.780Z,15.93
2023-05-12T15:08:43.348Z,16.25
2023-05-12T15:13:45.922Z,16.34
2023-05-12T15:18:48.612Z,16.22
2023-05-12T15:23:52.384Z,16.80
2023-05-12T15:28:55.169Z,15.16
2023-05-12T15:33:58.496Z,15.80
2023-05-12T15:39:02.569Z,15.04
2023-05-12T15:44:06.101Z,14.90
2023-05-12T15:49:08.666Z,13.75
2023-05-12T15:54:12.205Z,14.60
2023-05-12T15:59:14.975Z,14.52
2023-05-12T16:04:30.600Z,14.01
2023-05-12T16:09:43.540Z,14.22
2023-05-12T16:14:46.746Z,14.12
2023-05-12T16:19:50.066Z,14.38
2023-05-12T16:25:03.609Z,14.24
2023-05-12T16:30:14.420Z,14.06
2023-05-12T16:35:17.348Z,13.79
2023-05-12T16:40:20.264Z,13.56
2023-05-12T16:45:33.109Z,13.78
2023-05-12T16:50:35.685Z,14.68
2023-05-12T16:55:38.240Z,14.63
2023-05-12T17:00:42.734Z,14.02
2023-05-12T17:05:46.082Z,14.84
2023-05-12T17:11:07.524Z,14.18
2023-05-12T17:16:10.365Z,13.51
2023-05-12T17:21:13.517Z,13.19
2023-05-12T17:26:16.627Z,12.51
2023-05-12T17:31:19.181Z,12.50
2023-05-12T17:36:21.775Z,12.58
2023-05-12T17:41:25.130Z,12.64
2023-05-12T17:46:29.320Z,12.62
2023-05-12T17:51:32.807Z,12.04
2023-05-12T17:56:35.770Z,11.48
2023-05-12T18:01:38.851Z,12.32
2023-05-12T18:06:41.913Z,11.58
2023-05-12T18:11:54.729Z,12.07
2023-05-12T18:17:07.758Z,12.37
2023-05-12T18:22:10.451Z,11.88
2023-05-12T18:27:14.029Z,12.31
2023-05-12T18:32:16.805Z,11.49
2023-05-12T18:37:19.347Z,12.12
2023-05-12T23:13:00.179Z,8.35
2023-05-12T23:18:04.474Z,8.89
2023-05-12T23:23:08.057Z,9.00
2023-05-12T23:28:11.839Z,8.72
2023-05-12T23:33:15.548Z,8.88
2023-05-12T23:38:29.086Z,8.57
2023-05-12T23:43:32.106Z,8.50
2023-05-12T23:48:34.810Z,8.96
2023-05-12T23:53:37.427Z,8.29
2023-05-12T23:58:39.999Z,9.53
